createdAt,value
2018-11-03T00:00:01.084Z,13.80
2018-11-03T00:02:31.350Z,13.80
2018-11-03T00:05:01.610Z,13.70
2018-11-03T00:07:31.840Z,13.70
2018-11-03T00:10:02.132Z,13.70
2018-11-03T00:12:32.396Z,13.70
2018-11-03T00:15:02.632Z,13.70
2018-11-03T00:17:32.932Z,13.70
2018-11-03T00:20:03.354Z,13.70
2018-11-03T00:22:33.684Z,13.70
2018-11-03T00:25:03.981Z,13.70
2018-11-03T00:27:34.277Z,13.70
2018-11-03T00:30:05.842Z,13.70
2018-11-03T00:32:36.100Z,13.70
2018-11-03T00:35:06.543Z,13.60
2018-11-03T00:37:36.795Z,13.60
2018-11-03T00:40:10.171Z,13.60
2018-11-03T00:42:40.541Z,13.60
2018-11-03T00:45:12.016Z,13.50
2018-11-03T00:47:43.167Z,13.50
2018-11-03T00:50:14.596Z,13.50
2018-11-03T00:52:45.141Z,13.50
2018-11-03T00:55:15.471Z,13.50
2018-11-03T00:57:45.735Z,13.50
2018-11-03T01:00:17.778Z,13.40
2018-11-03T01:02:49.075Z,13.40
2018-11-03T01:05:19.338Z,13.40
2018-11-03T01:07:49.568Z,13.40
2018-11-03T01:10:19.885Z,13.40
2018-11-03T01:12:50.115Z,13.40
2018-11-03T01:15:20.392Z,13.40
2018-11-03T01:17:50.668Z,13.40
2018-11-03T01:20:20.932Z,13.40
2018-11-03T01:22:51.206Z,13.40
2018-11-03T01:25:21.449Z,13.40
2018-11-03T01:27:51.707Z,13.40
2018-11-03T01:30:21.961Z,13.40
2018-11-03T01:32:52.224Z,13.40
2018-11-03T01:35:22.479Z,13.30
2018-11-03T01:37:52.748Z,13.30
2018-11-03T01:40:22.990Z,13.40
2018-11-03T01:42:53.278Z,13.30
2018-11-03T01:45:23.511Z,13.30
2018-11-03T01:47:53.772Z,13.30
2018-11-03T01:50:24.043Z,13.30
2018-11-03T01:52:54.289Z,13.30
2018-11-03T01:55:24.570Z,13.30
2018-11-03T01:57:54.887Z,13.30
2018-11-03T02:00:25.126Z,13.30
2018-11-03T02:02:55.382Z,13.30
2018-11-03T02:05:25.669Z,13.20
2018-11-03T02:07:55.943Z,13.20
2018-11-03T02:10:26.177Z,13.20
2018-11-03T02:12:56.496Z,13.20
2018-11-03T02:15:26.752Z,13.20
2018-11-03T02:17:57.017Z,13.20
2018-11-03T02:20:27.247Z,13.20
2018-11-03T02:22:57.511Z,13.10
2018-11-03T02:25:27.786Z,13.10
2018-11-03T02:27:58.060Z,13.10
2018-11-03T02:30:28.319Z,13.10
2018-11-03T02:32:58.604Z,13.00
2018-11-03T02:35:28.878Z,13.00
2018-11-03T02:37:59.112Z,13.00
2018-11-03T02:40:29.380Z,13.00
2018-11-03T02:42:59.694Z,13.00
2018-11-03T02:45:29.948Z,12.90
2018-11-03T02:48:00.212Z,13.00
2018-11-03T02:50:30.447Z,13.00
2018-11-03T02:53:00.725Z,13.00
2018-11-03T02:55:31.012Z,13.00
2018-11-03T02:58:01.284Z,13.00
2018-11-03T03:00:31.610Z,13.10
2018-11-03T03:03:01.846Z,13.00
2018-11-03T03:05:32.083Z,13.00
2018-11-03T03:08:02.371Z,13.10
2018-11-03T03:10:32.636Z,13.10
2018-11-03T03:13:02.939Z,13.10
2018-11-03T03:15:33.244Z,13.10
2018-11-03T03:18:03.488Z,13.10
2018-11-03T03:20:33.772Z,13.20
2018-11-03T03:23:04.068Z,13.20
2018-11-03T03:25:34.359Z,13.10
2018-11-03T03:28:04.655Z,13.10
2018-11-03T03:30:35.025Z,13.10
2018-11-03T03:33:05.260Z,13.10
2018-11-03T03:35:35.586Z,13.10
2018-11-03T03:38:05.911Z,13.10
2018-11-03T03:40:36.233Z,13.20
2018-11-03T03:43:06.561Z,13.10
2018-11-03T03:45:36.841Z,13.10
2018-11-03T03:48:07.260Z,13.10
2018-11-03T03:50:37.561Z,13.10
2018-11-03T03:53:07.888Z,13.10
2018-11-03T03:55:38.249Z,13.10
2018-11-03T03:58:08.539Z,13.10
2018-11-03T04:00:38.852Z,13.10
2018-11-03T04:03:09.104Z,13.10
2018-11-03T04:05:39.388Z,13.10
2018-11-03T04:08:09.715Z,13.00
2018-11-03T04:10:40.073Z,13.00
2018-11-03T04:13:10.329Z,13.00
2018-11-03T04:15:40.893Z,13.00
2018-11-03T04:18:11.220Z,13.00
2018-11-03T04:20:41.498Z,12.90
2018-11-03T04:23:11.871Z,13.00
2018-11-03T04:25:42.119Z,12.90
2018-11-03T04:28:12.449Z,12.90
2018-11-03T04:30:42.771Z,12.90
2018-11-03T04:33:13.072Z,12.90
2018-11-03T04:35:43.356Z,12.90
2018-11-03T04:38:13.663Z,12.80
2018-11-03T04:40:43.954Z,12.80
2018-11-03T04:43:14.219Z,12.80
2018-11-03T04:45:44.517Z,12.80
2018-11-03T04:48:14.784Z,12.80
2018-11-03T04:50:45.042Z,12.80
2018-11-03T04:53:15.355Z,12.70
2018-11-03T04:55:45.650Z,12.80
2018-11-03T04:58:15.947Z,12.80
2018-11-03T05:00:46.225Z,12.80
2018-11-03T05:03:16.568Z,12.80
2018-11-03T05:05:46.840Z,12.70
2018-11-03T05:08:17.107Z,12.70
2018-11-03T05:10:47.389Z,12.70
2018-11-03T05:13:17.689Z,12.70
2018-11-03T05:15:47.936Z,12.70
2018-11-03T05:18:18.198Z,12.70
2018-11-03T05:20:48.488Z,12.70
2018-11-03T05:23:18.760Z,12.60
2018-11-03T05:25:49.017Z,12.70
2018-11-03T05:28:19.300Z,12.60
2018-11-03T05:30:49.621Z,12.60
2018-11-03T05:33:19.943Z,12.60
2018-11-03T05:35:50.215Z,12.60
2018-11-03T05:38:20.905Z,12.60
2018-11-03T05:40:51.146Z,12.60
2018-11-03T05:43:21.487Z,12.60
2018-11-03T05:45:51.757Z,12.50
2018-11-03T05:48:22.079Z,12.50
2018-11-03T05:50:52.327Z,12.50
2018-11-03T05:53:22.679Z,12.50
2018-11-03T05:55:52.926Z,12.40
2018-11-03T05:58:23.260Z,12.40
2018-11-03T06:00:53.522Z,12.40
2018-11-03T06:03:23.869Z,12.40
2018-11-03T06:05:54.147Z,12.40
2018-11-03T06:08:24.458Z,12.40
2018-11-03T06:10:54.724Z,12.40
2018-11-03T06:13:25.016Z,12.40
2018-11-03T06:15:55.255Z,12.50
2018-11-03T06:18:25.541Z,12.40
2018-11-03T06:20:55.800Z,12.40
2018-11-03T06:23:26.157Z,12.40
2018-11-03T06:25:56.536Z,12.40
2018-11-03T06:28:26.831Z,12.50
2018-11-03T06:30:57.116Z,12.50
2018-11-03T06:33:27.409Z,12.40
2018-11-03T06:35:57.636Z,12.50
2018-11-03T06:38:27.960Z,12.40
2018-11-03T06:40:58.257Z,12.50
2018-11-03T06:43:28.496Z,12.50
2018-11-03T06:45:58.789Z,12.50
2018-11-03T06:48:29.064Z,12.50
2018-11-03T06:50:59.418Z,12.50
2018-11-03T06:53:29.711Z,12.50
2018-11-03T06:56:00.029Z,12.60
2018-11-03T06:58:30.317Z,12.60
2018-11-03T07:01:00.638Z,12.70
2018-11-03T07:03:30.900Z,12.80
2018-11-03T07:06:01.210Z,12.80
2018-11-03T07:08:31.537Z,12.80
2018-11-03T07:11:01.879Z,12.90
2018-11-03T07:13:32.178Z,12.90
2018-11-03T07:16:02.460Z,13.00
2018-11-03T07:18:32.803Z,13.00
2018-11-03T07:21:03.065Z,13.10
2018-11-03T07:23:33.390Z,13.20
2018-11-03T07:26:03.830Z,13.30
2018-11-03T07:28:34.214Z,13.40
2018-11-03T07:31:04.513Z,13.40
2018-11-03T07:33:34.792Z,13.60
2018-11-03T07:36:05.200Z,13.60
2018-11-03T07:38:35.448Z,13.70
2018-11-03T07:41:06.323Z,13.80
2018-11-03T07:43:36.434Z,13.90
2018-11-03T07:46:07.175Z,14.10
2018-11-03T07:48:37.571Z,14.20
2018-11-03T07:51:07.758Z,14.30
2018-11-03T07:53:38.022Z,14.40
2018-11-03T07:56:08.361Z,14.50
2018-11-03T07:58:38.732Z,14.60
2018-11-03T08:01:08.970Z,14.70
2018-11-03T08:03:39.252Z,14.80
2018-11-03T08:06:09.500Z,14.80
2018-11-03T08:08:39.818Z,14.90
2018-11-03T08:11:10.090Z,14.90
2018-11-03T08:13:40.393Z,15.00
2018-11-03T08:16:10.670Z,15.10
2018-11-03T08:18:40.996Z,15.00
2018-11-03T08:21:11.247Z,15.10
2018-11-03T08:23:41.545Z,15.10
2018-11-03T08:26:11.760Z,15.20
2018-11-03T08:28:42.060Z,15.20
2018-11-03T08:31:12.313Z,15.30
2018-11-03T08:33:42.605Z,15.30
2018-11-03T08:36:12.828Z,15.30
2018-11-03T08:38:43.159Z,15.40
2018-11-03T08:41:13.391Z,15.40
2018-11-03T08:43:43.679Z,15.40
2018-11-03T08:46:13.934Z,15.50
2018-11-03T08:48:44.197Z,15.50
2018-11-03T08:51:14.488Z,15.60
2018-11-03T08:53:44.776Z,15.70
2018-11-03T08:56:15.030Z,15.80
2018-11-03T08:58:45.284Z,15.90
2018-11-03T09:01:15.577Z,16.00
2018-11-03T09:03:45.834Z,16.20
2018-11-03T09:06:16.080Z,16.30
2018-11-03T09:08:46.493Z,16.30
2018-11-03T09:11:16.793Z,16.20
2018-11-03T09:13:47.092Z,16.20
2018-11-03T09:16:17.352Z,16.30
2018-11-03T09:18:47.618Z,16.40
2018-11-03T09:21:17.907Z,16.40
2018-11-03T09:23:48.185Z,16.40
2018-11-03T09:26:18.409Z,16.40
2018-11-03T09:28:48.721Z,16.50
2018-11-03T09:31:18.983Z,16.40
2018-11-03T09:33:49.304Z,16.50
2018-11-03T09:36:19.584Z,16.50
2018-11-03T09:38:49.897Z,16.50
2018-11-03T09:41:20.177Z,16.60
2018-11-03T09:43:50.759Z,16.60
2018-11-03T09:46:21.034Z,16.70
2018-11-03T09:48:51.344Z,16.80
2018-11-03T09:51:21.732Z,16.80
2018-11-03T09:53:51.876Z,17.00
2018-11-03T09:56:22.372Z,17.10
2018-11-03T09:58:52.642Z,17.20
2018-11-03T10:01:22.945Z,17.30
2018-11-03T10:03:53.289Z,17.50
2018-11-03T10:06:23.634Z,17.50
2018-11-03T10:08:53.940Z,17.50
2018-11-03T10:11:24.187Z,17.50
2018-11-03T10:13:54.494Z,17.60
2018-11-03T10:16:24.752Z,17.70
2018-11-03T10:18:55.101Z,17.80
2018-11-03T10:21:25.356Z,17.90
2018-11-03T10:23:55.669Z,18.00
2018-11-03T10:26:25.958Z,18.00
2018-11-03T10:28:56.220Z,18.10
2018-11-03T10:31:26.523Z,18.20
2018-11-03T10:33:56.794Z,18.30
2018-11-03T10:36:27.108Z,18.40
2018-11-03T10:38:57.395Z,18.60
2018-11-03T10:41:27.699Z,18.70
2018-11-03T10:43:57.957Z,18.80
2018-11-03T10:46:28.228Z,18.90
2018-11-03T10:48:58.503Z,19.00
2018-11-03T10:51:28.877Z,19.10
2018-11-03T10:53:59.212Z,19.20
2018-11-03T10:56:29.474Z,19.30
2018-11-03T10:58:59.782Z,19.40
2018-11-03T11:01:35.209Z,19.50
2018-11-03T11:04:10.716Z,19.60
2018-11-03T11:07:18.281Z,19.80
2018-11-03T11:09:53.855Z,19.90
2018-11-03T11:12:29.171Z,20.20
2018-11-03T11:14:59.485Z,20.50
2018-11-03T11:17:29.749Z,20.70
2018-11-03T11:20:00.089Z,20.90
2018-11-03T11:22:30.391Z,20.90
2018-11-03T11:25:00.714Z,20.90
2018-11-03T11:27:30.936Z,20.80
2018-11-03T11:30:01.287Z,20.80
2018-11-03T11:32:31.862Z,20.70
2018-11-03T11:35:02.110Z,20.50
2018-11-03T11:37:32.501Z,20.50
2018-11-03T11:40:03.409Z,20.40
2018-11-03T11:42:33.762Z,20.40
2018-11-03T11:45:04.040Z,20.40
2018-11-03T11:47:35.084Z,20.40
2018-11-03T11:50:05.732Z,20.50
2018-11-03T11:52:36.531Z,20.50
2018-11-03T11:55:07.309Z,20.40
2018-11-03T11:57:37.456Z,20.40
2018-11-03T12:00:07.814Z,20.40
2018-11-03T12:02:38.069Z,20.50
2018-11-03T12:05:08.445Z,20.60
2018-11-03T12:07:38.838Z,20.80
2018-11-03T12:10:09.422Z,20.90
2018-11-03T12:12:39.580Z,21.00
2018-11-03T12:15:10.627Z,21.10
2018-11-03T12:17:41.003Z,21.40
2018-11-03T12:20:11.289Z,21.50
2018-11-03T12:22:41.620Z,21.40
2018-11-03T12:25:13.275Z,21.40
2018-11-03T12:27:43.601Z,21.30
2018-11-03T12:30:14.972Z,21.40
2018-11-03T12:32:45.293Z,21.40
2018-11-03T12:35:15.686Z,21.50
2018-11-03T12:37:45.959Z,21.50
2018-11-03T12:40:16.738Z,21.50
2018-11-03T12:42:47.044Z,21.50
2018-11-03T12:45:17.328Z,21.50
2018-11-03T12:47:47.593Z,21.50
2018-11-03T12:50:18.887Z,21.50
2018-11-03T12:52:49.226Z,21.60
2018-11-03T12:55:19.492Z,21.70
2018-11-03T12:57:49.773Z,21.70
2018-11-03T13:00:20.068Z,21.70
2018-11-03T13:02:50.392Z,21.50
2018-11-03T13:05:20.926Z,21.50
2018-11-03T13:07:51.056Z,21.60
2018-11-03T13:10:21.330Z,21.70
2018-11-03T13:12:51.592Z,21.70
2018-11-03T13:15:21.907Z,21.60
2018-11-03T13:17:52.285Z,21.50
2018-11-03T13:20:22.617Z,21.40
2018-11-03T13:22:52.971Z,21.20
2018-11-03T13:25:23.194Z,21.10
2018-11-03T13:27:53.436Z,20.90
2018-11-03T13:30:23.772Z,20.80
2018-11-03T13:32:54.059Z,20.60
2018-11-03T13:35:24.336Z,20.50
2018-11-03T13:37:54.634Z,20.40
2018-11-03T13:40:24.937Z,20.30
2018-11-03T13:42:55.182Z,20.20
2018-11-03T13:45:25.441Z,20.10
2018-11-03T13:47:55.722Z,20.00
2018-11-03T13:50:26.223Z,19.90
2018-11-03T13:52:57.290Z,19.90
2018-11-03T13:55:27.550Z,19.70
2018-11-03T13:57:57.828Z,19.70
2018-11-03T14:00:28.132Z,19.60
2018-11-03T14:02:58.383Z,19.60
2018-11-03T14:05:28.675Z,19.50
2018-11-03T14:07:58.992Z,19.40
2018-11-03T14:10:29.236Z,19.30
2018-11-03T14:12:59.568Z,19.30
2018-11-03T14:15:29.797Z,19.20
2018-11-03T14:18:00.068Z,19.20
2018-11-03T14:20:30.314Z,19.10
2018-11-03T14:23:00.595Z,19.00
2018-11-03T14:25:31.729Z,19.00
2018-11-03T14:28:02.076Z,19.00
2018-11-03T14:30:32.366Z,18.90
2018-11-03T14:33:02.630Z,18.90
2018-11-03T14:35:32.984Z,18.80
2018-11-03T14:38:03.236Z,18.80
2018-11-03T14:40:33.524Z,18.70
2018-11-03T14:43:03.816Z,18.70
2018-11-03T14:45:34.046Z,18.60
2018-11-03T14:48:04.306Z,18.50
2018-11-03T14:50:35.317Z,18.30
2018-11-03T14:53:05.541Z,18.30
2018-11-03T14:55:35.850Z,18.20
2018-11-03T14:58:06.709Z,18.00
2018-11-03T15:00:37.796Z,18.00
2018-11-03T15:03:08.733Z,17.80
2018-11-03T15:05:38.969Z,17.70
2018-11-03T15:08:09.289Z,17.60
2018-11-03T15:10:39.655Z,17.50
2018-11-03T15:13:09.910Z,17.30
2018-11-03T15:15:40.205Z,17.30
2018-11-03T15:18:10.468Z,17.20
2018-11-03T15:20:40.777Z,17.10
2018-11-03T15:23:11.036Z,17.00
2018-11-03T15:25:41.325Z,16.90
2018-11-03T15:28:11.678Z,16.70
2018-11-03T15:30:41.959Z,16.70
2018-11-03T15:33:12.259Z,16.60
2018-11-03T15:35:42.575Z,16.50
2018-11-03T15:38:12.869Z,16.50
2018-11-03T15:40:43.184Z,16.40
2018-11-03T15:43:13.454Z,16.30
2018-11-03T15:45:43.744Z,16.20
2018-11-03T15:48:14.034Z,16.20
2018-11-03T15:50:49.484Z,16.10
2018-11-03T15:53:20.272Z,16.00
2018-11-03T15:55:50.533Z,16.00
2018-11-03T15:58:21.552Z,15.80
2018-11-03T16:00:51.783Z,15.80
2018-11-03T16:03:22.060Z,15.80
2018-11-03T16:05:52.342Z,15.70
2018-11-03T16:08:22.721Z,15.70
2018-11-03T16:10:53.019Z,15.70
2018-11-03T16:13:23.398Z,15.60
2018-11-03T16:15:53.665Z,15.50
2018-11-03T16:18:23.934Z,15.40
2018-11-03T16:20:54.377Z,15.40
2018-11-03T16:23:24.613Z,15.30
2018-11-03T16:25:54.884Z,15.30
2018-11-03T16:28:25.496Z,15.20
2018-11-03T16:30:55.812Z,15.10
2018-11-03T16:33:26.099Z,15.10
2018-11-03T16:35:56.479Z,14.90
2018-11-03T16:38:26.833Z,14.90
2018-11-03T16:40:57.089Z,14.80
2018-11-03T16:43:27.331Z,14.80
2018-11-03T16:45:57.633Z,14.70
2018-11-03T16:48:27.943Z,14.70
2018-11-03T16:50:58.328Z,14.70
2018-11-03T16:53:28.616Z,14.60
2018-11-03T16:55:58.896Z,14.60
2018-11-03T16:58:29.162Z,14.60
2018-11-03T17:00:59.404Z,14.50
2018-11-03T17:03:29.684Z,14.50
2018-11-03T17:05:59.931Z,14.50
2018-11-03T17:08:30.204Z,14.50
2018-11-03T17:11:00.489Z,14.50
2018-11-03T17:13:30.784Z,14.50
2018-11-03T17:16:01.016Z,14.50
2018-11-03T17:18:32.068Z,14.50
2018-11-03T17:21:02.281Z,14.50
2018-11-03T17:23:32.670Z,14.50
2018-11-03T17:26:02.897Z,14.40
2018-11-03T17:28:33.177Z,14.40
2018-11-03T17:31:03.847Z,14.40
2018-11-03T17:33:34.086Z,14.40
2018-11-03T17:36:04.373Z,14.40
2018-11-03T17:38:34.645Z,14.50
2018-11-03T17:41:05.008Z,14.50
2018-11-03T17:43:35.220Z,14.50
2018-11-03T17:46:05.639Z,14.50
2018-11-03T17:48:36.131Z,14.50
2018-11-03T17:51:06.556Z,14.50
2018-11-03T17:53:36.870Z,14.50
2018-11-03T17:56:07.228Z,14.50
2018-11-03T17:58:37.529Z,14.50
2018-11-03T18:01:08.466Z,14.50
2018-11-03T18:03:38.732Z,14.50
2018-11-03T18:06:09.033Z,14.50
2018-11-03T18:08:39.276Z,14.50
2018-11-03T18:11:09.596Z,14.40
2018-11-03T18:13:39.892Z,14.40
2018-11-03T18:16:10.132Z,14.40
2018-11-03T18:18:40.652Z,14.40
2018-11-03T18:21:11.008Z,14.40
2018-11-03T18:23:41.889Z,14.40
2018-11-03T18:26:12.315Z,14.40
2018-11-03T18:28:42.442Z,14.40
2018-11-03T18:31:12.743Z,14.40
2018-11-03T18:33:43.091Z,14.40
2018-11-03T18:36:13.288Z,14.50
2018-11-03T18:38:43.533Z,14.50
2018-11-03T18:41:13.802Z,14.50
2018-11-03T18:43:44.100Z,14.40
2018-11-03T18:46:14.405Z,14.40
2018-11-03T18:48:44.717Z,14.40
2018-11-03T18:51:15.000Z,14.40
2018-11-03T18:53:45.217Z,14.40
2018-11-03T18:56:15.553Z,14.40
2018-11-03T18:58:45.863Z,14.40
2018-11-03T19:01:16.100Z,14.40
2018-11-03T19:03:46.400Z,14.40
2018-11-03T19:06:16.712Z,14.40
2018-11-03T19:08:46.980Z,14.30
2018-11-03T19:11:17.261Z,14.30
2018-11-03T19:13:48.009Z,14.30
2018-11-03T19:16:18.277Z,14.20
2018-11-03T19:18:48.531Z,14.20
2018-11-03T19:21:18.856Z,14.20
2018-11-03T19:23:49.832Z,14.20
2018-11-03T19:26:19.965Z,14.20
2018-11-03T19:28:50.297Z,14.20
2018-11-03T19:31:20.558Z,14.20
2018-11-03T19:33:50.830Z,14.20
2018-11-03T19:36:21.138Z,14.20
2018-11-03T19:38:51.855Z,14.10
2018-11-03T19:41:22.485Z,14.10
2018-11-03T19:43:52.930Z,14.10
2018-11-03T19:46:23.322Z,14.10
2018-11-03T19:48:53.619Z,14.00
2018-11-03T19:51:23.928Z,14.00
2018-11-03T19:53:54.282Z,14.00
2018-11-03T19:56:24.607Z,13.90
2018-11-03T19:58:54.848Z,13.80
2018-11-03T20:01:25.154Z,13.70
2018-11-03T20:03:55.399Z,13.70
2018-11-03T20:06:25.676Z,13.60
2018-11-03T20:08:55.921Z,13.60
2018-11-03T20:11:26.351Z,13.60
2018-11-03T20:13:56.671Z,13.60
2018-11-03T20:16:26.926Z,13.50
2018-11-03T20:18:57.219Z,13.50
2018-11-03T20:21:27.538Z,13.40
2018-11-03T20:23:57.811Z,13.40
2018-11-03T20:26:28.212Z,13.40
2018-11-03T20:28:58.522Z,13.40
2018-11-03T20:31:28.786Z,13.40
2018-11-03T20:33:59.166Z,13.40
2018-11-03T20:36:29.471Z,13.30
2018-11-03T20:38:59.718Z,13.30
2018-11-03T20:41:29.937Z,13.30
2018-11-03T20:44:00.686Z,13.20
2018-11-03T20:46:30.920Z,13.20
2018-11-03T20:49:01.196Z,13.20
2018-11-03T20:51:31.461Z,13.20
2018-11-03T20:54:01.890Z,13.10
2018-11-03T20:56:32.093Z,13.10
2018-11-03T20:59:02.370Z,13.10
2018-11-03T21:01:32.635Z,13.10
2018-11-03T21:04:02.921Z,13.10
2018-11-03T21:06:33.172Z,13.10
2018-11-03T21:09:04.141Z,13.00
2018-11-03T21:11:34.477Z,13.00
2018-11-03T21:14:04.829Z,13.00
2018-11-03T21:16:35.375Z,13.00
2018-11-03T21:19:06.360Z,12.90
2018-11-03T21:21:36.631Z,12.90
2018-11-03T21:24:07.057Z,12.80
2018-11-03T21:26:37.237Z,12.80
2018-11-03T21:29:08.134Z,12.80
2018-11-03T21:31:38.417Z,12.70
2018-11-03T21:34:08.869Z,12.60
2018-11-03T21:36:39.153Z,12.60
2018-11-03T21:39:10.937Z,12.50
2018-11-03T21:41:41.272Z,12.50
2018-11-03T21:44:11.529Z,12.50
2018-11-03T21:46:42.023Z,12.50
2018-11-03T21:49:12.781Z,12.50
2018-11-03T21:51:43.041Z,12.50
2018-11-03T21:54:13.337Z,12.50
2018-11-03T21:56:43.644Z,12.50
2018-11-03T21:59:14.194Z,12.50
2018-11-03T22:01:44.455Z,12.50
2018-11-03T22:04:14.809Z,12.50
2018-11-03T22:06:45.133Z,12.40
2018-11-03T22:09:15.421Z,12.40
2018-11-03T22:11:45.693Z,12.40
2018-11-03T22:14:15.997Z,12.40
2018-11-03T22:16:46.286Z,12.40
2018-11-03T22:19:16.571Z,12.30
2018-11-03T22:21:46.916Z,12.30
2018-11-03T22:24:17.145Z,12.20
2018-11-03T22:26:47.448Z,12.20
2018-11-03T22:29:17.734Z,12.10
2018-11-03T22:31:48.003Z,12.10
2018-11-03T22:34:18.293Z,12.10
2018-11-03T22:36:48.605Z,12.10
2018-11-03T22:39:18.894Z,12.10
2018-11-03T22:41:49.224Z,12.10
2018-11-03T22:44:19.548Z,12.10
2018-11-03T22:46:49.854Z,12.10
2018-11-03T22:49:20.116Z,12.00
2018-11-03T22:51:50.459Z,12.00
2018-11-03T22:54:20.692Z,11.90
2018-11-03T22:56:51.044Z,11.90
2018-11-03T22:59:21.303Z,11.80
2018-11-03T23:01:51.553Z,11.80
2018-11-03T23:04:21.908Z,11.80
2018-11-03T23:06:52.174Z,11.70
2018-11-03T23:09:22.505Z,11.70
2018-11-03T23:11:52.849Z,11.60
2018-11-03T23:14:23.127Z,11.60
2018-11-03T23:16:53.461Z,11.50
2018-11-03T23:19:23.955Z,11.50
2018-11-03T23:21:54.317Z,11.50
2018-11-03T23:24:24.530Z,11.50
2018-11-03T23:26:54.837Z,11.40
2018-11-03T23:29:25.146Z,11.40
2018-11-03T23:31:55.506Z,11.40
2018-11-03T23:34:25.956Z,11.40
2018-11-03T23:36:56.450Z,11.40
2018-11-03T23:39:26.765Z,11.40
2018-11-03T23:41:57.185Z,11.40
2018-11-03T23:44:27.683Z,11.30
2018-11-03T23:46:57.985Z,11.30
2018-11-03T23:49:28.233Z,11.30
2018-11-03T23:51:58.659Z,11.30
2018-11-03T23:54:29.992Z,11.20
2018-11-03T23:57:00.313Z,11.20
2018-11-03T23:59:30.741Z,11.20
